Bel Aire, Kansas
Current Conditions -  °F | °C
As of 10:54 AM on Friday 28 Nov 2014 (Local Time) from KAAO Reporting Station
Clear Clear  
Wind Chill: 52°   Ceiling: Unl
Heat Index: 52°   Visibility: 10mi
Dew Point: 32°   Wind: 16mph
Humidity: 47%   Direction: 190°S
Pressure: 29.95"   Gusts: NA
Location:  37.7646°N, 97.2186°W
Report Text: KAAO 281654Z AUTO 19014KT 10SM CLR 11/00 A2995 RMK AO2 SLP146 T01110000
Loading
Personal Weather Stations






























Interactive Weather Map New forecast layout! Learn more

10-Day Weather Forecast

Advertisements
Track Severe Weather on mobile